createdAt,value
2022-12-31T00:01:52.897Z,95931.06
2022-12-31T00:04:19.259Z,95930.31
2022-12-31T00:06:45.608Z,95927.28
2022-12-31T00:09:12.005Z,95926.37
2022-12-31T00:11:38.382Z,95923.87
2022-12-31T00:14:04.761Z,95923.07
2022-12-31T00:16:31.181Z,95921.41
2022-12-31T00:18:57.534Z,95920.95
2022-12-31T00:21:25.118Z,95920.02
2022-12-31T00:23:50.258Z,95924.89
2022-12-31T00:26:16.631Z,95936.40
2022-12-31T00:28:43.073Z,95930.42
2022-12-31T00:31:09.542Z,95934.73
2022-12-31T00:33:35.879Z,95948.06
2022-12-31T00:36:02.251Z,95946.77
2022-12-31T00:38:28.649Z,95945.94
2022-12-31T00:40:56.023Z,95948.17
2022-12-31T00:43:21.412Z,95950.37
2022-12-31T00:45:48.743Z,95954.23
2022-12-31T00:48:14.171Z,95955.52
2022-12-31T00:50:40.519Z,95966.19
2022-12-31T00:53:06.904Z,95962.41
2022-12-31T00:55:33.250Z,95963.69
2022-12-31T00:57:59.627Z,95965.55
2022-12-31T01:00:25.963Z,95969.30
2022-12-31T01:02:52.487Z,95969.41
2022-12-31T01:05:18.723Z,95982.27
2022-12-31T01:07:45.117Z,95985.69
2022-12-31T01:10:11.508Z,95990.83
2022-12-31T01:12:37.911Z,95984.02
2022-12-31T01:15:04.260Z,95981.52
2022-12-31T01:17:30.654Z,95984.92
2022-12-31T01:19:56.992Z,95991.81
2022-12-31T01:22:23.478Z,95991.02
2022-12-31T01:24:49.822Z,95985.48
2022-12-31T01:27:16.211Z,95981.70
2022-12-31T01:29:42.556Z,95979.13
2022-12-31T01:32:08.947Z,95985.22
2022-12-31T01:34:35.330Z,95989.91
2022-12-31T01:37:01.712Z,95987.80
2022-12-31T01:39:28.082Z,95995.14
2022-12-31T01:41:54.477Z,95987.87
2022-12-31T01:44:20.824Z,95989.98
2022-12-31T01:46:47.248Z,95999.00
2022-12-31T01:49:13.587Z,96000.73
2022-12-31T01:51:40.010Z,95999.45
2022-12-31T01:54:06.366Z,95995.14
2022-12-31T01:56:32.728Z,95991.66
2022-12-31T01:58:59.080Z,95992.00
2022-12-31T02:01:25.576Z,95998.09
2022-12-31T02:03:51.864Z,95996.42
2022-12-31T02:06:18.298Z,95988.25
2022-12-31T02:08:44.645Z,95992.94
2022-12-31T02:11:11.079Z,95999.37
2022-12-31T02:13:37.422Z,96001.50
2022-12-31T02:16:03.840Z,95997.15
2022-12-31T02:18:30.169Z,95996.62
2022-12-31T02:20:56.585Z,95995.41
2022-12-31T02:23:22.960Z,96001.01
2022-12-31T02:25:49.353Z,96000.10
2022-12-31T02:28:15.698Z,95999.72
2022-12-31T02:30:42.115Z,95996.23
2022-12-31T02:33:08.467Z,96007.37
2022-12-31T02:35:34.863Z,96008.28
2022-12-31T02:38:01.225Z,96003.12
2022-12-31T02:40:27.608Z,96010.39
2022-12-31T02:42:55.753Z,96009.56
2022-12-31T02:45:20.344Z,96009.11
2022-12-31T02:47:46.724Z,96015.92
2022-12-31T02:50:13.130Z,96011.69
2022-12-31T02:52:39.481Z,96018.12
2022-12-31T02:55:05.894Z,96021.53
2022-12-31T02:57:32.241Z,96017.21
2022-12-31T02:59:58.626Z,96021.42
2022-12-31T03:02:25.113Z,96022.70
2022-12-31T03:04:51.394Z,96016.76
2022-12-31T03:07:17.735Z,96019.78
2022-12-31T03:09:44.146Z,96014.26
2022-12-31T03:12:10.510Z,96011.23
2022-12-31T03:14:36.901Z,96008.20
2022-12-31T03:17:03.249Z,96006.08
2022-12-31T03:19:29.663Z,96007.83
2022-12-31T03:21:56.011Z,96000.02
2022-12-31T03:24:22.427Z,96011.61
2022-12-31T03:26:48.781Z,96013.70
2022-12-31T03:29:15.206Z,96011.50
2022-12-31T03:31:41.627Z,96011.50
2022-12-31T03:34:07.971Z,96008.47
2022-12-31T03:36:34.335Z,96010.94
2022-12-31T03:39:00.718Z,96007.08
2022-12-31T03:41:27.068Z,96005.34
2022-12-31T03:43:53.477Z,96007.91
2022-12-31T03:46:19.872Z,96004.50
2022-12-31T03:48:46.211Z,96007.91
2022-12-31T03:51:12.569Z,96009.13
2022-12-31T03:53:38.964Z,96012.08
2022-12-31T03:56:05.323Z,96014.65
2022-12-31T03:58:31.710Z,96015.11
2022-12-31T04:00:58.178Z,96018.52
2022-12-31T04:03:24.528Z,96021.89
2022-12-31T04:05:50.816Z,96026.50
2022-12-31T04:08:17.186Z,96024.95
2022-12-31T04:10:43.576Z,96022.37
2022-12-31T04:13:09.942Z,96024.46
2022-12-31T04:15:36.334Z,96018.97
2022-12-31T04:18:02.668Z,96020.14
2022-12-31T04:20:29.061Z,96021.89
2022-12-31T04:22:55.437Z,96024.00
2022-12-31T04:25:21.831Z,96027.87
2022-12-31T04:27:48.206Z,96028.81
2022-12-31T04:30:14.597Z,96028.81
2022-12-31T04:32:40.931Z,96040.39
2022-12-31T04:35:07.346Z,96044.26
2022-12-31T04:37:33.682Z,96042.97
2022-12-31T04:40:05.455Z,96047.17
2022-12-31T04:42:26.479Z,96048.47
2022-12-31T04:44:52.879Z,96048.12
2022-12-31T04:47:23.568Z,96057.48
2022-12-31T04:49:45.643Z,96056.95
2022-12-31T04:52:12.023Z,96059.22
2022-12-31T04:54:38.411Z,96066.41
2022-12-31T04:57:04.792Z,96066.03
2022-12-31T04:59:31.173Z,96067.77
2022-12-31T05:01:57.722Z,96075.05
2022-12-31T05:04:23.903Z,96080.12
2022-12-31T05:06:50.254Z,96088.19
2022-12-31T05:09:16.668Z,96091.59
2022-12-31T05:11:43.010Z,96085.27
2022-12-31T05:14:09.400Z,96095.45
2022-12-31T05:16:35.827Z,96092.88
2022-12-31T05:19:02.150Z,96098.87
2022-12-31T05:21:28.525Z,96105.30
2022-12-31T05:23:55.063Z,96105.30
2022-12-31T05:26:21.417Z,96102.00
2022-12-31T05:28:47.816Z,96114.31
2022-12-31T05:31:14.249Z,96112.65
2022-12-31T05:33:40.596Z,96111.36
2022-12-31T05:36:06.938Z,96113.94
2022-12-31T05:38:33.321Z,96115.15
2022-12-31T05:40:59.688Z,96120.75
2022-12-31T05:43:26.107Z,96115.67
2022-12-31T05:45:52.509Z,96123.33
2022-12-31T05:48:18.922Z,96113.94
2022-12-31T05:50:45.261Z,96118.17
2022-12-31T05:53:11.680Z,96113.94
2022-12-31T05:55:38.027Z,96119.08
2022-12-31T05:58:05.721Z,96119.08
2022-12-31T06:00:30.760Z,96120.75
2022-12-31T06:02:57.310Z,96116.96
2022-12-31T06:05:26.358Z,96124.61
2022-12-31T06:07:49.895Z,96119.73
2022-12-31T06:10:16.237Z,96124.44
2022-12-31T06:12:42.621Z,96120.68
2022-12-31T06:15:08.996Z,96124.55
2022-12-31T06:17:35.387Z,96128.30
2022-12-31T06:20:04.853Z,96125.34
2022-12-31T06:22:28.165Z,96126.73
2022-12-31T06:24:54.537Z,96127.19
2022-12-31T06:27:20.914Z,96128.92
2022-12-31T06:29:47.287Z,96135.81
2022-12-31T06:32:13.677Z,96144.83
2022-12-31T06:34:40.067Z,96144.55
2022-12-31T06:37:06.484Z,96147.51
2022-12-31T06:39:32.811Z,96145.84
2022-12-31T06:42:00.433Z,96151.83
2022-12-31T06:44:25.600Z,96151.09
2022-12-31T06:46:52.096Z,96150.61
2022-12-31T06:49:18.382Z,96154.85
2022-12-31T06:51:44.748Z,96165.25
2022-12-31T06:54:11.104Z,96164.77
2022-12-31T06:56:37.520Z,96178.48
2022-12-31T06:59:03.875Z,96184.45
2022-12-31T07:01:30.345Z,96182.89
2022-12-31T07:03:56.616Z,96182.97
2022-12-31T07:06:22.998Z,96176.98
2022-12-31T07:08:50.370Z,96180.32
2022-12-31T07:11:15.761Z,96177.92
2022-12-31T07:13:42.115Z,96185.09
2022-12-31T07:16:08.572Z,96187.66
2022-12-31T07:18:34.872Z,96194.09
2022-12-31T07:21:01.259Z,96192.43
2022-12-31T07:23:27.628Z,96195.77
2022-12-31T07:25:54.015Z,96196.67
2022-12-31T07:28:20.385Z,96194.48
2022-12-31T07:30:46.785Z,96208.09
2022-12-31T07:33:13.177Z,96201.30
2022-12-31T07:35:39.587Z,96202.94
2022-12-31T07:38:05.927Z,96203.39
2022-12-31T07:40:33.558Z,96204.67
2022-12-31T07:42:58.701Z,96210.20
2022-12-31T07:45:25.126Z,96203.77
2022-12-31T07:47:51.461Z,96211.04
2022-12-31T07:50:17.908Z,96213.23
2022-12-31T07:52:44.257Z,96212.33
2022-12-31T07:55:10.695Z,96212.70
2022-12-31T07:57:37.045Z,96216.57
2022-12-31T08:00:03.441Z,96221.55
2022-12-31T08:02:30.964Z,96220.33
2022-12-31T08:04:56.207Z,96219.87
2022-12-31T08:07:22.596Z,96219.87
2022-12-31T08:09:48.980Z,96214.28
2022-12-31T08:12:15.342Z,96217.23
2022-12-31T08:26:48.190Z,96220.46
2022-12-31T08:29:11.114Z,96220.92
2022-12-31T08:31:37.542Z,96221.69
2022-12-31T08:34:05.968Z,96218.48
2022-12-31T08:36:30.270Z,96218.38
2022-12-31T08:38:56.619Z,96222.63
2022-12-31T08:41:23.012Z,96219.15
2022-12-31T08:43:49.360Z,96219.95
2022-12-31T08:46:15.833Z,96220.78
2022-12-31T08:48:42.110Z,96216.02
2022-12-31T08:51:08.502Z,96217.58
2022-12-31T08:53:34.844Z,96210.23
2022-12-31T08:56:01.227Z,96209.33
2022-12-31T08:58:27.570Z,96211.42
2022-12-31T09:00:54.049Z,96205.33
2022-12-31T09:03:20.317Z,96206.97
2022-12-31T09:05:46.701Z,96210.83
2022-12-31T09:08:13.073Z,96209.47
2022-12-31T09:10:39.485Z,96207.34
2022-12-31T09:13:05.819Z,96205.50
2022-12-31T09:15:32.250Z,96211.03
2022-12-31T09:17:58.588Z,96205.05
2022-12-31T09:20:24.989Z,96208.73
2022-12-31T09:22:51.336Z,96204.87
2022-12-31T09:25:17.756Z,96202.22
2022-12-31T09:27:44.088Z,96199.64
2022-12-31T09:30:10.522Z,96198.25
2022-12-31T09:32:36.862Z,96191.36
2022-12-31T09:35:03.280Z,96192.66
2022-12-31T09:37:29.628Z,96190.00
2022-12-31T09:39:56.006Z,96184.85
2022-12-31T09:42:22.383Z,96175.73
2022-12-31T09:44:48.768Z,96178.23
2022-12-31T09:47:15.115Z,96171.87
2022-12-31T09:49:41.632Z,96167.09
2022-12-31T09:54:53.320Z,96163.12
2022-12-31T09:57:19.652Z,96156.23
2022-12-31T09:59:46.052Z,96151.39
2022-12-31T10:02:12.603Z,96154.31
2022-12-31T10:04:38.777Z,96146.23
2022-12-31T10:07:05.126Z,96140.14
2022-12-31T10:09:31.576Z,96145.22
2022-12-31T10:11:57.921Z,96143.09
2022-12-31T10:14:24.305Z,96140.42
2022-12-31T10:16:50.695Z,96137.77
2022-12-31T10:19:17.070Z,96135.19
2022-12-31T10:21:43.463Z,96135.91
2022-12-31T10:24:09.838Z,96131.14
2022-12-31T10:26:36.173Z,96127.28
2022-12-31T10:29:02.569Z,96128.38
2022-12-31T10:31:28.899Z,96126.27
2022-12-31T10:33:55.290Z,96118.45
2022-12-31T10:36:21.639Z,96119.19
2022-12-31T10:38:48.127Z,96116.98
2022-12-31T10:41:14.457Z,96107.05
2022-12-31T10:43:40.908Z,96107.05
2022-12-31T10:46:07.287Z,96103.09
2022-12-31T10:48:33.643Z,96097.86
2022-12-31T10:51:00.018Z,96096.91
2022-12-31T10:53:26.414Z,96089.11
2022-12-31T10:55:52.786Z,96092.52
2022-12-31T10:58:19.182Z,96088.20
2022-12-31T11:00:45.517Z,96086.80
2022-12-31T11:03:11.977Z,96091.04
2022-12-31T11:05:38.380Z,96093.05
2022-12-31T11:08:04.764Z,96091.69
2022-12-31T11:10:31.099Z,96089.11
2022-12-31T11:12:58.803Z,96088.47
2022-12-31T11:15:23.856Z,96086.61
2022-12-31T11:17:50.281Z,96092.95
2022-12-31T11:20:16.618Z,96090.29
2022-12-31T11:22:43.060Z,96085.14
2022-12-31T11:25:09.373Z,96079.79
2022-12-31T11:27:35.768Z,96075.47
2022-12-31T11:30:02.105Z,96072.78
2022-12-31T11:32:28.507Z,96069.30
2022-12-31T11:34:54.859Z,96076.46
2022-12-31T11:37:21.252Z,96071.30
2022-12-31T11:39:47.622Z,96070.84
2022-12-31T11:42:13.980Z,96065.99
2022-12-31T11:44:40.363Z,96067.17
2022-12-31T11:47:06.754Z,96062.31
2022-12-31T11:49:33.088Z,96060.83
2022-12-31T11:51:59.477Z,96055.67
2022-12-31T11:54:25.819Z,96059.72
2022-12-31T11:56:52.220Z,96050.62
2022-12-31T11:59:19.893Z,96053.00
2022-12-31T12:01:44.968Z,96053.64
2022-12-31T12:04:11.358Z,96055.27
2022-12-31T12:06:37.722Z,96056.38
2022-12-31T12:09:04.070Z,96052.31
2022-12-31T12:11:30.501Z,96058.40
2022-12-31T12:13:56.845Z,96058.01
2022-12-31T12:16:23.345Z,96063.12
2022-12-31T12:18:49.635Z,96059.80
2022-12-31T12:21:16.049Z,96063.99
2022-12-31T12:23:42.427Z,96059.32
2022-12-31T12:26:08.821Z,96056.17
2022-12-31T12:28:38.396Z,96061.22
2022-12-31T12:31:01.669Z,96053.96
2022-12-31T12:33:28.001Z,96057.26
2022-12-31T12:35:54.385Z,96062.02
2022-12-31T12:38:20.755Z,96054.22
2022-12-31T12:40:47.129Z,96061.96
2022-12-31T12:43:13.506Z,96061.96
2022-12-31T12:45:39.884Z,96068.73
2022-12-31T12:48:06.259Z,96068.73
2022-12-31T12:50:32.644Z,96058.35
2022-12-31T12:52:59.733Z,96058.35
2022-12-31T12:55:25.407Z,96067.82
2022-12-31T12:57:51.743Z,96070.41
2022-12-31T13:00:18.166Z,96067.70
2022-12-31T13:02:44.522Z,96063.83
2022-12-31T13:05:10.924Z,96057.23
2022-12-31T13:07:37.259Z,96072.41
2022-12-31T13:10:03.666Z,96057.41
2022-12-31T13:12:48.984Z,96059.45
2022-12-31T13:14:56.384Z,96075.63
2022-12-31T13:17:22.730Z,96076.25
2022-12-31T13:19:49.143Z,96082.45
2022-12-31T13:22:15.471Z,96091.37
2022-12-31T13:24:41.997Z,96091.37
2022-12-31T13:27:08.337Z,96096.82
2022-12-31T13:29:34.862Z,96087.70
2022-12-31T13:32:01.248Z,96095.88
2022-12-31T13:34:27.594Z,96095.88
2022-12-31T13:36:53.924Z,96096.33
2022-12-31T13:39:20.331Z,96097.99
2022-12-31T13:41:46.665Z,96084.02
2022-12-31T13:44:13.061Z,96098.66
2022-12-31T13:46:39.391Z,96098.66
2022-12-31T13:49:05.814Z,96094.34
2022-12-31T13:51:32.155Z,96064.72
2022-12-31T13:53:58.543Z,96095.64
2022-12-31T13:56:25.971Z,96102.35
2022-12-31T13:58:51.288Z,96107.80
2022-12-31T14:01:17.710Z,96103.94
2022-12-31T14:03:44.046Z,96096.93
2022-12-31T14:06:10.384Z,96096.93
2022-12-31T14:08:36.777Z,96095.09
2022-12-31T14:11:03.107Z,96105.07
2022-12-31T14:13:34.583Z,96107.64
2022-12-31T14:15:55.886Z,96107.64
2022-12-31T14:18:22.276Z,96109.13
2022-12-31T14:20:48.625Z,96110.16
2022-12-31T14:23:15.000Z,96095.16
2022-12-31T14:25:41.363Z,96110.55
2022-12-31T14:28:07.735Z,96089.36
2022-12-31T14:30:34.103Z,96109.83
2022-12-31T14:33:00.497Z,96064.53
2022-12-31T14:35:26.849Z,96064.53
2022-12-31T14:37:53.266Z,96088.75
2022-12-31T14:40:19.612Z,96094.07
2022-12-31T14:42:46.008Z,96095.00
2022-12-31T14:45:12.337Z,96093.16
2022-12-31T14:47:38.757Z,96088.19
2022-12-31T14:50:05.103Z,96095.94
2022-12-31T14:52:31.518Z,96092.98
2022-12-31T14:54:57.847Z,96089.79
2022-12-31T14:57:24.263Z,96089.79
2022-12-31T14:59:50.609Z,96090.33
2022-12-31T15:02:17.154Z,96078.47
2022-12-31T15:04:43.397Z,96092.92
2022-12-31T15:07:09.772Z,96092.92
2022-12-31T15:09:36.153Z,96100.27
2022-12-31T15:12:02.561Z,96104.50
2022-12-31T15:14:33.702Z,96109.55
2022-12-31T15:16:55.294Z,96107.09
2022-12-31T15:19:21.689Z,96106.05
2022-12-31T15:21:48.105Z,96112.50
2022-12-31T15:24:14.450Z,96111.48
2022-12-31T15:26:40.888Z,96117.66
2022-12-31T15:29:07.221Z,96111.22
2022-12-31T15:31:33.633Z,96116.95
2022-12-31T15:33:59.957Z,96129.27
2022-12-31T15:36:26.364Z,96125.97
2022-12-31T15:38:52.722Z,96125.97
2022-12-31T15:41:19.135Z,96132.31
2022-12-31T15:43:45.473Z,96132.31
2022-12-31T15:46:11.899Z,96123.02
2022-12-31T15:48:38.202Z,96132.77
2022-12-31T15:51:04.616Z,96133.25
2022-12-31T15:53:30.982Z,96136.37
2022-12-31T15:55:57.363Z,96133.25
2022-12-31T15:58:23.699Z,96137.20
2022-12-31T16:00:50.118Z,96143.39
2022-12-31T16:03:16.629Z,96144.68
2022-12-31T16:05:42.871Z,96148.62
2022-12-31T16:08:09.206Z,96147.91
2022-12-31T16:10:37.653Z,96150.11
2022-12-31T16:13:02.015Z,96157.96
2022-12-31T16:15:28.439Z,96168.62
2022-12-31T16:17:54.773Z,96178.33
2022-12-31T16:20:21.162Z,96178.97
2022-12-31T16:22:47.501Z,96184.48
2022-12-31T16:25:31.172Z,96181.89
2022-12-31T16:27:40.273Z,96184.66
2022-12-31T16:30:06.669Z,96188.19
2022-12-31T16:32:33.027Z,96193.42
2022-12-31T16:34:59.407Z,96194.71
2022-12-31T16:37:25.779Z,96188.64
2022-12-31T16:39:52.157Z,96202.56
2022-12-31T16:42:18.523Z,96211.58
2022-12-31T16:44:44.928Z,96194.25
2022-12-31T16:47:11.275Z,96194.25
2022-12-31T16:49:38.889Z,96208.70
2022-12-31T16:52:04.082Z,96204.77
2022-12-31T16:54:30.489Z,96212.84
2022-12-31T16:56:56.833Z,96210.00
2022-12-31T16:59:24.132Z,96212.31
2022-12-31T17:01:49.705Z,96214.32
2022-12-31T17:04:16.013Z,96215.45
2022-12-31T17:06:42.359Z,96215.45
2022-12-31T17:09:08.744Z,96220.23
2022-12-31T17:11:35.117Z,96228.16
2022-12-31T17:14:01.503Z,96227.13
2022-12-31T17:16:27.897Z,96232.09
2022-12-31T17:18:54.241Z,96231.91
2022-12-31T17:21:20.592Z,96235.23
2022-12-31T17:23:46.982Z,96239.48
2022-12-31T17:26:13.354Z,96239.75
2022-12-31T17:28:39.800Z,96243.42
2022-12-31T17:31:06.191Z,96246.27
2022-12-31T17:33:32.552Z,96248.30
2022-12-31T17:35:58.882Z,96247.02
2022-12-31T17:38:25.300Z,96251.41
2022-12-31T17:40:52.431Z,96253.16
2022-12-31T17:43:18.117Z,96256.49
2022-12-31T17:45:44.492Z,96255.28
2022-12-31T17:48:10.884Z,96252.70
2022-12-31T17:50:37.310Z,96250.65
2022-12-31T17:53:03.709Z,96257.55
2022-12-31T17:55:30.044Z,96259.48
2022-12-31T17:57:56.462Z,96251.74
2022-12-31T18:00:22.818Z,96253.21
2022-12-31T18:02:49.243Z,96255.61
2022-12-31T18:05:15.574Z,96257.08
2022-12-31T18:07:41.957Z,96255.89
2022-12-31T18:10:08.346Z,96258.92
2022-12-31T18:12:34.714Z,96257.26
2022-12-31T18:15:01.062Z,96262.06
2022-12-31T18:17:27.445Z,96261.69
2022-12-31T18:20:04.876Z,96257.44
2022-12-31T18:22:20.211Z,96251.17
2022-12-31T18:24:46.561Z,96250.27
2022-12-31T18:27:12.979Z,96246.58
2022-12-31T18:29:39.353Z,96243.24
2022-12-31T18:32:05.743Z,96247.11
2022-12-31T18:34:32.094Z,96248.40
2022-12-31T18:36:58.481Z,96249.69
2022-12-31T18:39:24.832Z,96252.75
2022-12-31T18:41:51.221Z,96250.25
2022-12-31T18:44:17.557Z,96256.03
2022-12-31T18:46:43.961Z,96260.55
2022-12-31T18:49:10.347Z,96260.55
2022-12-31T18:51:36.728Z,96265.89
2022-12-31T18:54:03.103Z,96265.33
2022-12-31T18:56:29.459Z,96260.45
2022-12-31T18:58:55.888Z,96266.91
2022-12-31T19:01:22.321Z,96271.59
2022-12-31T19:03:48.658Z,96274.70
2022-12-31T19:06:16.207Z,96281.98
2022-12-31T19:08:41.419Z,96280.62
2022-12-31T19:11:07.764Z,96279.96
2022-12-31T19:13:34.186Z,96279.76
2022-12-31T19:16:00.556Z,96280.31
2022-12-31T19:18:26.930Z,96279.13
2022-12-31T19:20:53.308Z,96277.18
2022-12-31T19:23:19.775Z,96280.39
2022-12-31T19:25:46.049Z,96285.47
2022-12-31T19:28:12.423Z,96276.14
2022-12-31T19:30:38.767Z,96279.66
2022-12-31T19:33:05.153Z,96278.72
2022-12-31T19:35:31.509Z,96273.66
2022-12-31T19:37:57.921Z,96269.34
2022-12-31T19:40:24.281Z,96270.71
2022-12-31T19:42:50.704Z,96269.08
2022-12-31T19:45:17.092Z,96276.42
2022-12-31T19:47:43.463Z,96273.56
2022-12-31T19:50:09.834Z,96273.73
2022-12-31T19:52:36.272Z,96276.88
2022-12-31T19:55:02.612Z,96272.63
2022-12-31T19:57:29.008Z,96274.47
2022-12-31T19:59:55.352Z,96275.31
2022-12-31T20:02:21.941Z,96275.03
2022-12-31T20:04:48.102Z,96280.53
2022-12-31T20:07:14.486Z,96281.09
2022-12-31T20:09:40.875Z,96299.12
2022-12-31T20:12:07.288Z,96297.83
2022-12-31T20:14:34.611Z,96297.06
2022-12-31T20:17:00.099Z,96288.98
2022-12-31T20:19:26.394Z,96298.84
2022-12-31T20:21:55.230Z,96297.45
2022-12-31T20:24:21.569Z,96297.17
2022-12-31T20:26:48.004Z,96299.36
2022-12-31T20:29:14.341Z,96304.52
2022-12-31T20:31:40.755Z,96310.88
2022-12-31T20:34:07.188Z,96312.23
2022-12-31T20:36:33.522Z,96311.51
2022-12-31T20:38:59.941Z,96316.28
2022-12-31T20:41:26.334Z,96310.22
2022-12-31T20:43:52.703Z,96315.09
2022-12-31T20:46:19.148Z,96307.27
2022-12-31T20:48:45.458Z,96308.27
2022-12-31T20:51:11.853Z,96309.55
2022-12-31T20:53:38.257Z,96310.29
2022-12-31T20:56:04.693Z,96309.28
2022-12-31T20:58:31.037Z,96317.28
2022-12-31T21:00:57.627Z,96313.48
2022-12-31T21:04:03.184Z,96307.53
2022-12-31T21:05:50.354Z,96309.00
2022-12-31T21:08:16.551Z,96299.33
2022-12-31T21:10:42.963Z,96296.75
2022-12-31T21:13:09.305Z,96295.95
2022-12-31T21:15:35.765Z,96290.80
2022-12-31T21:18:02.074Z,96287.91
2022-12-31T21:20:28.473Z,96286.55
2022-12-31T21:22:54.821Z,96291.70
2022-12-31T21:25:21.211Z,96293.99
2022-12-31T21:27:47.542Z,96297.09
2022-12-31T21:30:19.062Z,96294.90
2022-12-31T21:32:40.306Z,96302.55
2022-12-31T21:35:41.233Z,96299.98
2022-12-31T21:37:58.802Z,96309.80
2022-12-31T21:39:59.498Z,96309.06
2022-12-31T21:42:25.879Z,96303.91
2022-12-31T21:44:52.266Z,96306.11
2022-12-31T21:47:36.496Z,96304.92
2022-12-31T21:49:45.034Z,96309.52
2022-12-31T21:52:11.407Z,96300.61
2022-12-31T21:54:37.872Z,96296.87
2022-12-31T21:57:04.247Z,96297.27
2022-12-31T21:59:30.656Z,96300.67
2022-12-31T22:01:57.147Z,96302.10
2022-12-31T22:05:00.292Z,96308.85
2022-12-31T22:06:49.768Z,96304.13
2022-12-31T22:09:16.171Z,96305.13
2022-12-31T22:11:42.501Z,96303.84
2022-12-31T22:14:08.899Z,96302.20
2022-12-31T22:16:35.298Z,96302.20
2022-12-31T22:19:01.660Z,96303.11
2022-12-31T22:21:28.013Z,96305.13
2022-12-31T22:23:54.418Z,96306.20
2022-12-31T22:26:20.741Z,96308.16
2022-12-31T22:28:47.127Z,96311.66
2022-12-31T22:31:13.580Z,96313.92
2022-12-31T22:33:39.861Z,96316.36
2022-12-31T22:36:07.183Z,96319.56
2022-12-31T22:38:32.636Z,96319.56
2022-12-31T22:40:58.975Z,96322.87
2022-12-31T22:43:25.368Z,96335.01
2022-12-31T22:45:51.730Z,96327.80
2022-12-31T22:48:18.130Z,96331.66
2022-12-31T22:50:44.460Z,96328.19
2022-12-31T22:53:11.918Z,96327.73
2022-12-31T22:55:38.260Z,96332.05
2022-12-31T22:58:04.672Z,96333.05
2022-12-31T23:00:31.007Z,96321.82
2022-12-31T23:02:57.494Z,96320.53
2022-12-31T23:05:23.810Z,96318.44
2022-12-31T23:07:50.225Z,96318.89
2022-12-31T23:10:16.573Z,96323.20
2022-12-31T23:12:42.990Z,96329.09
2022-12-31T23:15:09.326Z,96335.63
2022-12-31T23:17:35.710Z,96334.34
2022-12-31T23:20:02.085Z,96331.83
2022-12-31T23:22:28.478Z,96334.34
2022-12-31T23:24:54.815Z,96329.71
2022-12-31T23:27:21.197Z,96323.66
2022-12-31T23:29:47.897Z,96327.59
2022-12-31T23:32:13.945Z,96329.36
2022-12-31T23:34:40.314Z,96326.30
2022-12-31T23:37:06.722Z,96318.96
2022-12-31T23:39:33.063Z,96315.66
2022-12-31T23:41:59.438Z,96313.43
2022-12-31T23:44:25.786Z,96307.09
2022-12-31T23:46:52.292Z,96310.05
2022-12-31T23:49:18.618Z,96308.77
2022-12-31T23:51:45.016Z,96316.94
2022-12-31T23:54:11.360Z,96319.06
2022-12-31T23:56:37.764Z,96317.39
2022-12-31T23:59:04.111Z,96321.70
